Time;durP1;ratioP1;P1;durP2;ratioP2;P2;SDS_P1;SDS_P2;PMS_P1;PMS_P2;Temp;Humidity;BMP_temperature;BMP_pressure;BME280_temperature;BME280_humidity;BME280_pressure;Samples;Min_cycle;Max_cycle;Signal;HPM_P1;HPM_P2
2023/09/06 00:00:40;;;;;;;1.95;1.38;;;21.60;99.90;;;;;;5023651;28;47564;-52
2023/09/06 00:03:07;;;;;;;2.95;1.50;;;21.60;99.90;;;;;;5023889;28;45131;-52
2023/09/06 00:05:34;;;;;;;1.77;1.48;;;21.70;99.90;;;;;;5023588;28;44645;-52
2023/09/06 00:08:04;;;;;;;1.52;1.33;;;21.70;99.90;;;;;;5026182;28;44704;-52
2023/09/06 00:10:30;;;;;;;3.67;1.30;;;21.70;99.90;;;;;;5023870;28;45604;-52
2023/09/06 00:12:57;;;;;;;3.85;1.80;;;21.70;99.90;;;;;;5025808;28;45182;-52
2023/09/06 00:15:24;;;;;;;1.98;1.30;;;21.70;99.90;;;;;;5022877;28;45209;-52
2023/09/06 00:17:51;;;;;;;2.28;1.45;;;21.70;99.90;;;;;;5021220;28;45089;-51
2023/09/06 00:20:20;;;;;;;3.22;1.52;;;21.70;99.90;;;;;;5005829;28;47002;-51
2023/09/06 00:22:55;;;;;;;2.72;1.77;;;21.70;99.90;;;;;;5007162;28;45100;-51
2023/09/06 00:25:24;;;;;;;1.75;1.33;;;21.70;99.90;;;;;;5011057;28;45206;-51
2023/09/06 00:27:51;;;;;;;1.75;1.30;;;21.80;99.90;;;;;;5012521;28;45120;-51
2023/09/06 00:30:18;;;;;;;3.28;1.30;;;21.80;99.90;;;;;;5008139;28;48368;-51
2023/09/06 00:32:45;;;;;;;2.58;1.30;;;21.80;99.90;;;;;;5018498;28;45917;-51
2023/09/06 00:35:12;;;;;;;2.55;1.40;;;21.80;99.90;;;;;;5025473;28;45160;-51
2023/09/06 00:37:40;;;;;;;2.72;1.27;;;21.80;99.90;;;;;;5022758;28;44879;-51
2023/09/06 00:40:12;;;;;;;1.48;1.10;;;21.80;99.90;;;;;;5017421;28;47585;-51
2023/09/06 00:42:40;;;;;;;1.83;1.17;;;21.80;99.90;;;;;;5023511;28;44621;-51
2023/09/06 00:45:08;;;;;;;2.92;1.50;;;21.70;99.90;;;;;;5020468;28;45087;-51
2023/09/06 00:47:35;;;;;;;1.58;1.35;;;21.70;99.90;;;;;;5015725;28;45374;-51
2023/09/06 00:50:02;;;;;;;3.78;1.40;;;21.70;99.90;;;;;;5025031;28;46077;-51
2023/09/06 00:52:29;;;;;;;2.08;1.70;;;21.70;99.90;;;;;;5024855;28;45681;-51
2023/09/06 00:54:57;;;;;;;1.80;1.17;;;21.70;99.90;;;;;;5021964;28;45152;-51
2023/09/06 00:57:24;;;;;;;1.33;1.20;;;21.70;99.90;;;;;;5021118;28;45131;-51
2023/09/06 00:59:54;;;;;;;1.48;1.27;;;21.70;99.90;;;;;;5017401;28;45069;-51
2023/09/06 01:02:21;;;;;;;1.80;1.50;;;21.70;99.90;;;;;;5020512;28;45115;-51
2023/09/06 01:04:48;;;;;;;1.50;1.23;;;21.70;99.90;;;;;;5022399;28;45190;-51
2023/09/06 01:07:15;;;;;;;3.28;1.52;;;21.70;99.90;;;;;;5024624;28;45510;-51
2023/09/06 01:09:42;;;;;;;1.42;1.30;;;21.70;99.90;;;;;;5024602;28;46378;-51
2023/09/06 01:12:10;;;;;;;1.42;1.33;;;21.70;99.90;;;;;;5024019;28;45223;-51
2023/09/06 01:14:38;;;;;;;3.00;1.30;;;21.70;99.90;;;;;;5022262;28;45216;-51
2023/09/06 01:17:07;;;;;;;1.95;1.50;;;21.70;99.90;;;;;;5023162;28;45154;-51
2023/09/06 01:19:36;;;;;;;1.45;1.25;;;21.70;99.90;;;;;;5015330;28;46262;-51
2023/09/06 01:22:07;;;;;;;1.92;1.38;;;21.70;99.90;;;;;;5024342;28;45176;-51
2023/09/06 01:24:36;;;;;;;1.73;1.10;;;21.70;99.90;;;;;;5023188;28;44642;-51
2023/09/06 01:27:05;;;;;;;2.47;1.50;;;21.70;99.90;;;;;;5018807;28;44721;-51
2023/09/06 01:29:32;;;;;;;2.35;1.50;;;21.70;99.90;;;;;;5022530;28;45223;-51
2023/09/06 01:31:59;;;;;;;3.63;1.52;;;21.70;99.90;;;;;;5017855;28;45206;-50
2023/09/06 01:34:26;;;;;;;1.90;1.63;;;21.70;99.90;;;;;;5019697;28;45118;-51
2023/09/06 01:36:53;;;;;;;1.38;1.17;;;21.70;99.90;;;;;;5016890;28;45165;-51
2023/09/06 01:39:20;;;;;;;1.25;1.15;;;21.70;99.90;;;;;;5024708;28;46047;-50
2023/09/06 01:41:48;;;;;;;3.40;1.75;;;21.60;99.90;;;;;;5021300;28;45183;-51
2023/09/06 01:44:15;;;;;;;4.18;1.50;;;21.70;99.90;;;;;;5024247;28;45137;-50
2023/09/06 01:46:41;;;;;;;2.22;1.60;;;21.70;99.90;;;;;;5015622;28;45118;-50
2023/09/06 01:49:08;;;;;;;2.85;1.60;;;21.70;99.90;;;;;;5024158;28;47188;-50
2023/09/06 01:51:35;;;;;;;3.50;1.35;;;21.70;99.90;;;;;;5024137;28;45293;-50
2023/09/06 01:54:04;;;;;;;2.55;1.65;;;21.70;99.90;;;;;;5022202;28;45167;-51
2023/09/06 01:56:31;;;;;;;2.03;1.40;;;21.70;99.90;;;;;;5021547;28;45147;-51
2023/09/06 01:58:59;;;;;;;1.98;1.60;;;21.70;99.90;;;;;;5021848;28;48415;-51
2023/09/06 02:01:26;;;;;;;2.55;1.52;;;21.70;99.90;;;;;;5016607;28;45167;-51
2023/09/06 02:03:53;;;;;;;1.55;1.42;;;21.70;99.90;;;;;;5022041;28;45084;-51
2023/09/06 02:06:19;;;;;;;2.55;1.90;;;21.70;99.90;;;;;;5022761;28;45219;-50
2023/09/06 02:08:46;;;;;;;4.47;1.90;;;21.70;99.90;;;;;;5021258;28;45056;-50
2023/09/06 02:11:13;;;;;;;2.58;1.60;;;21.70;99.90;;;;;;5006265;28;45326;-50
2023/09/06 02:13:39;;;;;;;4.32;1.48;;;21.70;99.90;;;;;;5004514;28;45175;-51
2023/09/06 02:16:07;;;;;;;2.15;1.40;;;21.70;99.90;;;;;;5010080;28;45148;-51
2023/09/06 02:18:34;;;;;;;2.28;1.55;;;21.70;99.90;;;;;;5022659;28;46382;-51
2023/09/06 02:21:02;;;;;;;2.08;1.48;;;21.70;99.90;;;;;;5021818;28;45124;-51
2023/09/06 02:23:29;;;;;;;1.92;1.50;;;21.70;99.90;;;;;;5023814;28;45133;-51
2023/09/06 02:25:56;;;;;;;1.85;1.50;;;21.60;99.90;;;;;;5021956;28;44639;-51
2023/09/06 02:28:23;;;;;;;2.65;1.75;;;21.60;99.90;;;;;;5023982;28;45185;-51
2023/09/06 02:30:50;;;;;;;2.22;1.50;;;21.60;99.90;;;;;;5018581;28;45071;-51
2023/09/06 02:33:18;;;;;;;2.38;1.58;;;21.70;99.90;;;;;;5021404;28;45069;-51
2023/09/06 02:35:45;;;;;;;1.75;1.48;;;21.60;99.90;;;;;;5020901;28;45314;-51
2023/09/06 02:38:13;;;;;;;2.65;1.75;;;21.60;99.90;;;;;;5023840;28;45402;-51
2023/09/06 02:40:41;;;;;;;2.53;1.60;;;21.60;99.90;;;;;;5023357;28;45056;-51
2023/09/06 02:43:10;;;;;;;1.98;1.58;;;21.60;99.90;;;;;;5021777;28;45218;-50
2023/09/06 02:45:40;;;;;;;1.67;1.30;;;21.60;99.90;;;;;;5021118;28;45128;-51
2023/09/06 02:48:12;;;;;;;3.10;2.00;;;21.60;99.90;;;;;;5020004;28;47107;-51
2023/09/06 02:50:40;;;;;;;2.55;1.58;;;21.60;99.90;;;;;;5023303;28;45194;-51
2023/09/06 02:53:18;;;;;;;2.17;1.75;;;21.60;99.90;;;;;;5018221;28;45209;-51
2023/09/06 02:55:45;;;;;;;2.47;1.50;;;21.60;99.90;;;;;;5019014;28;45145;-51
2023/09/06 02:58:12;;;;;;;2.90;1.40;;;21.60;99.90;;;;;;5023447;28;46356;-51
2023/09/06 03:00:40;;;;;;;4.57;1.58;;;21.60;99.90;;;;;;5023101;28;45105;-51
2023/09/06 03:03:07;;;;;;;2.35;1.60;;;21.60;99.90;;;;;;5018320;28;45068;-51
2023/09/06 03:05:41;;;;;;;2.78;1.58;;;21.70;99.90;;;;;;5016041;28;45230;-51
2023/09/06 03:08:09;;;;;;;2.72;1.63;;;21.70;99.90;;;;;;5016443;28;45197;-51
2023/09/06 03:10:36;;;;;;;3.40;1.60;;;21.70;99.90;;;;;;5021351;28;45086;-51
2023/09/06 03:13:05;;;;;;;1.63;1.40;;;21.70;99.90;;;;;;5021874;28;45212;-51
2023/09/06 03:15:34;;;;;;;1.42;1.30;;;21.70;99.90;;;;;;5019925;28;45238;-51
2023/09/06 03:18:02;;;;;;;2.10;1.63;;;21.70;99.90;;;;;;5014330;28;45167;-51
2023/09/06 03:20:42;;;;;;;1.92;1.63;;;21.70;99.90;;;;;;5024631;28;45178;-52
2023/09/06 03:23:17;;;;;;;2.25;1.73;;;21.70;99.90;;;;;;5027112;28;45190;-52
2023/09/06 03:25:45;;;;;;;3.85;2.03;;;21.70;99.90;;;;;;5024189;28;45128;-52
2023/09/06 03:28:12;;;;;;;2.10;1.48;;;21.70;99.90;;;;;;5024757;28;45244;-52
2023/09/06 03:30:39;;;;;;;2.95;1.70;;;21.70;99.90;;;;;;5025903;28;45172;-52
2023/09/06 03:33:06;;;;;;;2.85;1.27;;;21.60;99.90;;;;;;5013537;28;44572;-51
2023/09/06 03:35:33;;;;;;;1.92;1.60;;;21.60;99.90;;;;;;5009417;28;45285;-51
2023/09/06 03:38:00;;;;;;;1.83;1.33;;;21.60;99.90;;;;;;5016164;28;46242;-51
2023/09/06 03:40:35;;;;;;;2.63;1.40;;;21.50;99.90;;;;;;5024274;28;45132;-51
2023/09/06 03:43:11;;;;;;;2.72;1.60;;;21.50;99.90;;;;;;5012515;28;44656;-51
2023/09/06 03:45:38;;;;;;;2.13;1.42;;;21.50;99.90;;;;;;5022512;28;45544;-51
2023/09/06 03:48:07;;;;;;;2.33;1.48;;;21.40;99.90;;;;;;5018139;28;47948;-51
2023/09/06 03:50:33;;;;;;;3.20;1.33;;;21.40;99.90;;;;;;5023265;28;45203;-51
2023/09/06 03:53:01;;;;;;;4.00;1.55;;;21.40;99.90;;;;;;5026706;28;44591;-51
2023/09/06 03:55:29;;;;;;;2.22;1.50;;;21.30;99.90;;;;;;5025987;28;45578;-51
2023/09/06 03:57:55;;;;;;;3.10;1.98;;;21.30;99.90;;;;;;5022110;28;45120;-51
2023/09/06 04:00:26;;;;;;;3.25;1.42;;;21.10;99.90;;;;;;5019525;28;45194;-51
2023/09/06 04:02:54;;;;;;;1.70;1.10;;;21.10;99.90;;;;;;5021635;28;45198;-51
2023/09/06 04:05:25;;;;;;;4.57;1.35;;;21.00;99.90;;;;;;5017367;28;45432;-51
2023/09/06 04:07:53;;;;;;;1.85;1.20;;;20.90;99.90;;;;;;5026106;28;45142;-51
2023/09/06 04:10:21;;;;;;;2.30;1.30;;;21.00;99.90;;;;;;5025498;28;44583;-51
2023/09/06 04:12:53;;;;;;;6.25;1.73;;;21.00;99.90;;;;;;5024912;28;45072;-51
2023/09/06 04:15:21;;;;;;;2.20;1.35;;;21.10;99.90;;;;;;5020785;28;45051;-52
2023/09/06 04:17:50;;;;;;;2.20;1.40;;;21.20;99.90;;;;;;5019750;28;45168;-51
2023/09/06 04:20:19;;;;;;;4.43;1.50;;;21.30;99.90;;;;;;5020699;28;45310;-52
2023/09/06 04:22:47;;;;;;;2.40;1.40;;;21.30;99.90;;;;;;5026093;28;45126;-52
2023/09/06 04:25:16;;;;;;;2.20;1.48;;;21.30;99.90;;;;;;5021951;28;45419;-52
2023/09/06 04:27:45;;;;;;;2.00;1.58;;;21.30;99.90;;;;;;5022108;28;46632;-52
2023/09/06 04:30:15;;;;;;;3.22;1.30;;;21.30;99.90;;;;;;5023670;28;45076;-51
2023/09/06 04:32:44;;;;;;;1.65;1.27;;;21.20;99.90;;;;;;5023722;28;45148;-51
2023/09/06 04:35:11;;;;;;;1.67;1.50;;;21.30;99.90;;;;;;5022607;28;45421;-51
2023/09/06 04:37:38;;;;;;;1.60;1.20;;;21.20;99.90;;;;;;5021204;28;45225;-51
2023/09/06 04:40:08;;;;;;;1.85;1.40;;;21.30;99.90;;;;;;5019335;28;45548;-51
2023/09/06 04:42:35;;;;;;;1.95;1.25;;;21.20;99.90;;;;;;5020536;28;45261;-51
2023/09/06 04:45:02;;;;;;;2.28;1.50;;;21.10;99.90;;;;;;5020949;28;45084;-51
2023/09/06 04:47:31;;;;;;;2.03;1.20;;;21.30;99.90;;;;;;5018672;28;47377;-51
2023/09/06 04:49:58;;;;;;;1.30;1.15;;;21.30;99.90;;;;;;5023379;28;45073;-51
2023/09/06 04:52:26;;;;;;;3.20;1.40;;;21.30;99.90;;;;;;5024959;28;45096;-51
2023/09/06 04:54:53;;;;;;;2.17;1.52;;;21.30;99.90;;;;;;5024268;28;45298;-52
2023/09/06 04:57:20;;;;;;;2.85;1.70;;;21.40;99.90;;;;;;5023165;28;45216;-52
2023/09/06 04:59:47;;;;;;;1.95;1.63;;;21.40;99.90;;;;;;5025160;28;45101;-52
2023/09/06 05:02:15;;;;;;;2.47;1.50;;;21.40;97.80;;;;;;5023759;28;45203;-51
2023/09/06 05:04:43;;;;;;;2.60;1.50;;;21.30;96.80;;;;;;5021063;28;45286;-52
2023/09/06 05:07:11;;;;;;;4.78;1.27;;;21.40;96.80;;;;;;5014745;28;45171;-52
2023/09/06 05:09:38;;;;;;;2.75;1.60;;;21.40;96.00;;;;;;5016636;28;45158;-52
2023/09/06 05:12:06;;;;;;;2.05;1.40;;;21.30;95.10;;;;;;5016892;28;45341;-53
2023/09/06 05:14:32;;;;;;;2.35;1.48;;;21.30;95.30;;;;;;5023367;28;44663;-52
2023/09/06 05:16:59;;;;;;;2.70;1.50;;;21.40;97.70;;;;;;5015856;28;47638;-52
2023/09/06 05:19:27;;;;;;;2.60;1.70;;;21.40;97.40;;;;;;5011626;28;45460;-52
2023/09/06 05:21:55;;;;;;;2.47;1.60;;;21.50;98.10;;;;;;5016878;28;45213;-52
2023/09/06 05:24:22;;;;;;;1.80;1.13;;;21.50;98.30;;;;;;5020445;28;45025;-51
2023/09/06 05:26:49;;;;;;;1.80;1.48;;;21.60;97.70;;;;;;5016976;28;46238;-51
2023/09/06 05:29:17;;;;;;;2.30;1.10;;;21.60;98.20;;;;;;5025154;28;46189;-52
2023/09/06 05:31:44;;;;;;;1.77;1.30;;;21.60;99.00;;;;;;5020989;28;45217;-52
2023/09/06 05:34:11;;;;;;;2.55;1.58;;;21.70;98.50;;;;;;5022030;28;45170;-52
2023/09/06 05:36:38;;;;;;;1.73;1.40;;;21.70;99.00;;;;;;5016196;28;46378;-52
2023/09/06 05:39:07;;;;;;;3.72;1.63;;;21.70;98.70;;;;;;5009689;28;45226;-51
2023/09/06 05:41:34;;;;;;;2.28;1.25;;;21.70;99.20;;;;;;5019126;28;45108;-51
2023/09/06 05:44:00;;;;;;;2.35;1.55;;;21.70;99.10;;;;;;5005891;28;44797;-52
2023/09/06 05:46:27;;;;;;;4.80;1.80;;;21.70;98.50;;;;;;5002054;28;46522;-52
2023/09/06 05:48:54;;;;;;;1.92;1.55;;;21.50;97.60;;;;;;5014877;28;45411;-53
2023/09/06 05:51:21;;;;;;;3.10;1.45;;;21.30;98.00;;;;;;5021087;28;45159;-52
2023/09/06 05:53:47;;;;;;;3.47;1.52;;;21.00;98.90;;;;;;5016020;28;45185;-52
2023/09/06 05:56:16;;;;;;;2.35;1.40;;;20.90;99.10;;;;;;5008789;28;47821;-52
2023/09/06 05:58:42;;;;;;;1.85;1.60;;;20.80;99.80;;;;;;5005660;28;45207;-52
2023/09/06 06:01:08;;;;;;;3.45;1.60;;;20.80;99.70;;;;;;5007296;28;45219;-52
2023/09/06 06:03:37;;;;;;;2.10;1.33;;;20.70;99.90;;;;;;5004880;28;45222;-52
2023/09/06 06:06:06;;;;;;;3.15;2.05;;;20.70;99.90;;;;;;5016437;28;45495;-52
2023/09/06 06:08:33;;;;;;;2.88;1.60;;;20.60;99.90;;;;;;5022647;28;45223;-52
2023/09/06 06:11:01;;;;;;;3.33;2.50;;;20.60;99.90;;;;;;5021229;28;45286;-52
2023/09/06 06:13:29;;;;;;;3.40;1.60;;;20.60;99.90;;;;;;5016462;28;45220;-52
2023/09/06 06:15:56;;;;;;;4.88;2.00;;;20.50;99.90;;;;;;5020333;28;45396;-52
2023/09/06 06:18:25;;;;;;;5.03;1.90;;;20.50;99.90;;;;;;5009976;28;45099;-52
2023/09/06 06:20:52;;;;;;;3.15;1.95;;;20.50;99.90;;;;;;5019463;28;45264;-52
2023/09/06 06:23:18;;;;;;;3.85;1.65;;;20.40;99.90;;;;;;5019104;28;45087;-51
2023/09/06 06:25:45;;;;;;;2.50;1.50;;;20.50;99.90;;;;;;5020985;28;45167;-52
2023/09/06 06:28:12;;;;;;;4.57;1.88;;;20.50;99.90;;;;;;5024158;28;45203;-52
2023/09/06 06:30:40;;;;;;;2.78;2.00;;;20.60;99.90;;;;;;5020930;28;44662;-51
2023/09/06 06:33:07;;;;;;;2.72;1.80;;;20.60;99.90;;;;;;5020387;28;45200;-51
2023/09/06 06:35:34;;;;;;;2.40;1.83;;;20.50;99.90;;;;;;5022811;28;45299;-51
2023/09/06 06:38:02;;;;;;;2.20;1.50;;;20.60;99.90;;;;;;5024063;28;45070;-51
2023/09/06 06:40:29;;;;;;;3.22;1.50;;;20.70;99.90;;;;;;5015759;28;45163;-51
2023/09/06 06:42:56;;;;;;;4.75;1.98;;;20.70;99.90;;;;;;5020514;28;45100;-51
2023/09/06 06:45:24;;;;;;;1.80;1.50;;;20.80;99.90;;;;;;5012430;28;46968;-51
2023/09/06 06:47:53;;;;;;;2.30;1.60;;;20.90;99.90;;;;;;5009912;28;44688;-51
2023/09/06 06:50:20;;;;;;;5.70;1.67;;;20.90;99.90;;;;;;5018221;28;45124;-51
2023/09/06 06:52:46;;;;;;;4.63;1.55;;;21.00;99.90;;;;;;5015760;28;45187;-52
2023/09/06 06:55:14;;;;;;;2.35;1.60;;;21.10;99.90;;;;;;5023047;28;48056;-51
2023/09/06 06:57:42;;;;;;;2.28;1.70;;;21.00;99.90;;;;;;5016039;28;45296;-51
2023/09/06 07:00:11;;;;;;;3.90;2.00;;;20.90;99.90;;;;;;5017553;28;45180;-51
2023/09/06 07:02:38;;;;;;;2.92;1.90;;;20.90;99.70;;;;;;5019787;28;45228;-51
2023/09/06 07:05:07;;;;;;;2.55;1.38;;;20.90;99.90;;;;;;5016399;28;46188;-51
2023/09/06 07:07:34;;;;;;;7.35;1.80;;;20.90;99.90;;;;;;5011736;28;45718;-51
2023/09/06 07:10:01;;;;;;;3.33;1.58;;;20.90;99.90;;;;;;5014061;28;45127;-51
2023/09/06 07:12:28;;;;;;;2.70;1.50;;;20.90;99.90;;;;;;5009996;28;45143;-51
2023/09/06 07:14:55;;;;;;;4.38;2.03;;;21.00;99.70;;;;;;5015848;28;45173;-51
2023/09/06 07:17:22;;;;;;;2.42;1.52;;;21.00;99.90;;;;;;5019119;28;45292;-52
2023/09/06 07:19:49;;;;;;;1.70;1.15;;;21.60;99.90;;;;;;5023923;28;45120;-52
2023/09/06 07:22:18;;;;;;;6.32;1.90;;;22.00;99.50;;;;;;5023378;28;45142;-51
2023/09/06 07:24:45;;;;;;;5.07;1.70;;;22.10;96.20;;;;;;5012462;28;46338;-52
2023/09/06 07:27:12;;;;;;;2.83;1.83;;;21.80;99.00;;;;;;5023139;28;45143;-52
2023/09/06 07:29:39;;;;;;;1.23;1.00;;;21.90;98.80;;;;;;5015754;28;45120;-52
2023/09/06 07:32:06;;;;;;;2.33;1.20;;;21.90;99.50;;;;;;5020906;28;44771;-52
2023/09/06 07:34:33;;;;;;;3.33;1.40;;;22.30;98.20;;;;;;5021000;28;45154;-52
2023/09/06 07:36:59;;;;;;;1.42;1.02;;;22.40;97.50;;;;;;5022784;28;45296;-52
2023/09/06 07:39:28;;;;;;;3.70;1.42;;;22.40;97.30;;;;;;5023193;28;45096;-52
2023/09/06 07:41:55;;;;;;;3.75;1.48;;;22.50;96.70;;;;;;5021274;28;44720;-52
2023/09/06 07:44:22;;;;;;;3.60;1.42;;;22.60;96.40;;;;;;5020727;28;47024;-52
2023/09/06 07:46:50;;;;;;;2.40;1.60;;;22.60;96.10;;;;;;5017218;28;45022;-52
2023/09/06 07:49:18;;;;;;;5.78;1.60;;;22.70;96.10;;;;;;5020700;28;45159;-53
2023/09/06 07:51:45;;;;;;;2.05;1.80;;;22.70;95.80;;;;;;5015896;28;45154;-52
2023/09/06 07:54:12;;;;;;;2.70;1.63;;;22.60;96.20;;;;;;5021489;28;46049;-52
2023/09/06 07:56:40;;;;;;;6.35;1.70;;;22.60;96.10;;;;;;5014423;28;45118;-52
2023/09/06 07:59:10;;;;;;;4.72;1.50;;;22.70;95.80;;;;;;5019637;28;45076;-52
2023/09/06 08:01:36;;;;;;;2.78;1.50;;;22.70;95.50;;;;;;5012256;28;45335;-52
2023/09/06 08:04:03;;;;;;;2.97;1.60;;;22.70;95.40;;;;;;5019627;28;47008;-52
2023/09/06 08:06:30;;;;;;;5.20;1.70;;;22.70;95.00;;;;;;5024990;28;45223;-52
2023/09/06 08:08:58;;;;;;;5.32;1.65;;;22.70;95.00;;;;;;5025605;28;45150;-52
2023/09/06 08:11:25;;;;;;;4.82;1.63;;;22.70;95.00;;;;;;5022655;28;45205;-52
2023/09/06 08:13:54;;;;;;;1.90;1.58;;;22.80;95.00;;;;;;5016327;28;46260;-52
2023/09/06 08:16:20;;;;;;;2.47;1.42;;;22.70;95.00;;;;;;5019347;28;45097;-52
2023/09/06 08:18:47;;;;;;;4.80;1.80;;;22.70;94.70;;;;;;5019210;28;45170;-52
2023/09/06 08:21:14;;;;;;;2.35;1.70;;;22.70;95.00;;;;;;5014243;28;44817;-52
2023/09/06 08:23:41;;;;;;;5.28;1.60;;;22.70;94.70;;;;;;5016243;28;46631;-52
2023/09/06 08:26:08;;;;;;;2.17;1.58;;;22.80;94.60;;;;;;5023764;28;45128;-52
2023/09/06 08:28:35;;;;;;;2.40;1.73;;;22.80;94.50;;;;;;5025915;28;45095;-52
2023/09/06 08:31:04;;;;;;;3.20;1.52;;;22.80;94.50;;;;;;5015667;28;45280;-52
2023/09/06 08:33:32;;;;;;;3.60;1.70;;;22.80;94.40;;;;;;5017511;28;46022;-52
2023/09/06 08:35:59;;;;;;;4.68;1.98;;;22.80;94.50;;;;;;5024748;28;45075;-52
2023/09/06 08:38:26;;;;;;;3.33;1.50;;;22.70;94.40;;;;;;5026272;28;45125;-52
2023/09/06 08:40:53;;;;;;;2.20;1.52;;;22.80;94.60;;;;;;5021684;28;44726;-51
2023/09/06 08:43:20;;;;;;;4.43;1.70;;;22.80;94.50;;;;;;5025517;28;46340;-51
2023/09/06 08:45:50;;;;;;;3.05;1.75;;;22.80;94.40;;;;;;5022543;28;44575;-51
2023/09/06 08:48:18;;;;;;;4.05;1.70;;;22.80;94.40;;;;;;5022255;28;45129;-51
2023/09/06 08:50:46;;;;;;;2.70;1.50;;;22.80;94.30;;;;;;5021983;28;45064;-51
2023/09/06 08:53:15;;;;;;;5.25;1.90;;;22.80;94.30;;;;;;5019137;28;45136;-51
2023/09/06 08:55:43;;;;;;;2.47;1.40;;;22.80;94.00;;;;;;5022291;28;45172;-52
2023/09/06 08:58:10;;;;;;;5.65;1.70;;;22.90;94.00;;;;;;5023911;28;45114;-51
2023/09/06 09:00:38;;;;;;;2.58;1.67;;;22.80;94.00;;;;;;5025256;28;45151;-52
2023/09/06 09:03:05;;;;;;;3.20;1.80;;;22.90;93.80;;;;;;5023426;28;46103;-51
2023/09/06 09:05:33;;;;;;;2.17;1.40;;;22.80;93.70;;;;;;5022951;28;45559;-52
2023/09/06 09:08:01;;;;;;;2.60;1.48;;;22.80;93.80;;;;;;5025475;28;45104;-51
2023/09/06 09:10:31;;;;;;;3.95;1.88;;;22.90;93.70;;;;;;5023077;28;45117;-52
2023/09/06 09:12:59;;;;;;;3.70;1.58;;;22.80;93.70;;;;;;5025008;28;45179;-52
2023/09/06 09:15:27;;;;;;;2.63;1.60;;;22.90;93.70;;;;;;5021374;28;45303;-52
2023/09/06 09:17:54;;;;;;;5.50;1.83;;;22.90;93.60;;;;;;5014911;28;45224;-51
2023/09/06 09:20:20;;;;;;;2.13;1.50;;;22.90;93.40;;;;;;5025025;28;45077;-51
2023/09/06 09:22:50;;;;;;;3.05;1.63;;;22.90;93.60;;;;;;5022955;28;47009;-51
2023/09/06 09:25:23;;;;;;;4.13;1.60;;;22.90;93.60;;;;;;5022509;28;45228;-52
2023/09/06 09:27:55;;;;;;;3.45;2.03;;;22.90;93.30;;;;;;5020673;28;45148;-52
2023/09/06 09:30:22;;;;;;;2.97;1.98;;;22.80;93.30;;;;;;5015550;28;45143;-52
2023/09/06 09:32:56;;;;;;;2.92;2.00;;;22.70;93.70;;;;;;5022273;28;46245;-51
2023/09/06 09:35:26;;;;;;;3.53;1.77;;;22.60;93.80;;;;;;5021842;28;45203;-52
2023/09/06 09:37:56;;;;;;;3.47;1.80;;;22.50;94.30;;;;;;5023098;28;45047;-52
2023/09/06 09:40:32;;;;;;;3.65;2.30;;;22.40;94.90;;;;;;5024896;28;45433;-52
2023/09/06 09:43:00;;;;;;;3.35;2.10;;;22.40;94.20;;;;;;5022013;28;45210;-52
2023/09/06 09:45:29;;;;;;;4.55;2.17;;;22.30;94.90;;;;;;5020940;28;45136;-52
2023/09/06 09:47:56;;;;;;;6.13;2.30;;;22.40;94.40;;;;;;5020343;28;44685;-51
2023/09/06 09:50:23;;;;;;;2.28;1.80;;;22.40;93.30;;;;;;5022885;28;45345;-52
2023/09/06 09:52:50;;;;;;;3.83;2.30;;;22.50;94.60;;;;;;5024051;28;47432;-52
2023/09/06 09:55:21;;;;;;;3.30;2.05;;;22.40;93.30;;;;;;5023646;28;45148;-52
2023/09/06 09:57:49;;;;;;;3.22;1.85;;;22.50;93.20;;;;;;5021068;28;45118;-52
2023/09/06 10:00:17;;;;;;;3.50;2.42;;;22.50;93.20;;;;;;5021896;28;45128;-52
2023/09/06 10:02:45;;;;;;;3.28;2.20;;;22.50;93.50;;;;;;5020363;28;45277;-52
2023/09/06 10:05:16;;;;;;;2.50;1.70;;;22.50;94.00;;;;;;5023386;28;45228;-52
2023/09/06 10:07:43;;;;;;;3.13;1.95;;;22.50;93.60;;;;;;5022347;28;44743;-52
2023/09/06 10:10:11;;;;;;;2.17;1.52;;;22.50;94.00;;;;;;5022394;28;45095;-52
2023/09/06 10:12:44;;;;;;;3.55;2.03;;;22.50;93.10;;;;;;5023524;28;47240;-51
2023/09/06 10:15:14;;;;;;;4.82;2.10;;;22.50;92.30;;;;;;5013474;28;45195;-52
2023/09/06 10:17:41;;;;;;;2.35;1.73;;;22.50;92.50;;;;;;5021980;28;45107;-51
2023/09/06 10:20:12;;;;;;;3.80;2.00;;;22.50;93.90;;;;;;5019993;28;45024;-52
2023/09/06 10:22:42;;;;;;;2.80;1.80;;;22.50;93.40;;;;;;5023788;28;45223;-52
2023/09/06 10:25:11;;;;;;;2.20;1.50;;;22.50;93.40;;;;;;5023728;28;45108;-51
2023/09/06 10:27:47;;;;;;;3.13;2.25;;;22.50;93.80;;;;;;5018403;28;45128;-51
2023/09/06 10:30:17;;;;;;;2.47;1.83;;;22.40;92.60;;;;;;5020727;28;45072;-51
2023/09/06 10:32:45;;;;;;;1.98;1.58;;;22.40;94.40;;;;;;5017109;28;44960;-52
2023/09/06 10:35:23;;;;;;;2.92;2.00;;;22.40;91.90;;;;;;5014792;28;45295;-51
2023/09/06 10:38:10;;;;;;;1.80;1.30;;;22.40;94.00;;;;;;5024256;28;44565;-51
2023/09/06 10:41:18;;;;;;;1.88;1.50;;;22.40;94.40;;;;;;5022085;28;44837;-51
2023/09/06 10:44:06;;;;;;;2.20;1.60;;;22.40;94.20;;;;;;5017190;28;46311;-51
2023/09/06 10:46:34;;;;;;;4.63;2.20;;;22.40;94.30;;;;;;5014775;28;45135;-51
2023/09/06 10:49:19;;;;;;;2.13;1.60;;;22.40;92.80;;;;;;5021014;28;45197;-51
2023/09/06 10:52:03;;;;;;;2.22;1.60;;;22.40;94.20;;;;;;5024028;28;45219;-51
2023/09/06 10:54:35;;;;;;;1.85;1.40;;;22.40;94.20;;;;;;5023166;28;46538;-51
2023/09/06 10:57:06;;;;;;;1.80;1.50;;;22.40;94.10;;;;;;5014210;28;45234;-51
2023/09/06 10:59:37;;;;;;;1.95;1.30;;;22.40;93.00;;;;;;5023549;28;44672;-51
2023/09/06 11:02:15;;;;;;;2.92;1.95;;;22.40;94.10;;;;;;5013293;28;45304;-51
2023/09/06 11:04:42;;;;;;;2.17;1.45;;;22.40;93.30;;;;;;5023267;28;45269;-51
2023/09/06 11:07:10;;;;;;;1.63;1.15;;;22.50;94.40;;;;;;5023870;28;45087;-52
2023/09/06 11:09:45;;;;;;;2.75;1.70;;;22.40;94.80;;;;;;5023736;28;45217;-51
2023/09/06 11:12:13;;;;;;;7.20;2.38;;;22.40;93.40;;;;;;5021679;28;45223;-57
2023/09/06 11:14:42;;;;;;;10.45;2.00;;;22.50;91.00;;;;;;5022926;28;45270;-54
2023/09/06 11:17:09;;;;;;;5.35;1.85;;;22.50;94.80;;;;;;5021554;28;45155;-59
2023/09/06 11:19:36;;;;;;;4.55;1.25;;;22.60;93.20;;;;;;5022450;28;45210;-58
2023/09/06 11:22:11;;;;;;;469.80;33.80;;;22.70;95.00;;;;;;5015572;28;45104;-58
2023/09/06 11:24:38;;;;;;;2.30;1.50;;;23.00;96.70;;;;;;5022787;28;46673;-53
2023/09/06 11:27:21;;;;;;;18.70;1.58;;;23.40;95.30;;;;;;5021355;28;45188;-58
2023/09/06 11:29:58;;;;;;;4.00;1.00;;;23.70;94.90;;;;;;5017988;28;45326;-58
2023/09/06 11:32:26;;;;;;;3.60;1.40;;;23.60;94.40;;;;;;5018426;28;44758;-57
2023/09/06 11:34:53;;;;;;;2.63;1.17;;;23.60;94.80;;;;;;5022571;28;46139;-57
2023/09/06 11:37:21;;;;;;;3.42;1.50;;;23.50;95.20;;;;;;5016944;28;45060;-58
2023/09/06 11:39:49;;;;;;;5.13;1.40;;;23.40;95.30;;;;;;5018145;28;45125;-57
2023/09/06 11:42:19;;;;;;;9.88;1.45;;;23.40;95.30;;;;;;5013664;28;45089;-57
2023/09/06 11:44:50;;;;;;;1.90;0.95;;;23.30;95.70;;;;;;5013149;28;48210;-57
2023/09/06 11:47:23;;;;;;;3.38;1.30;;;23.30;95.20;;;;;;5016862;28;45181;-58
2023/09/06 11:49:50;;;;;;;4.13;1.30;;;23.20;95.20;;;;;;5012481;28;45108;-58
2023/09/06 11:52:18;;;;;;;2.67;1.35;;;23.20;95.20;;;;;;5012400;28;45228;-57
2023/09/06 11:54:47;;;;;;;2.10;1.23;;;23.20;95.20;;;;;;5010575;28;46456;-58
2023/09/06 11:57:22;;;;;;;1.13;0.93;;;23.20;95.20;;;;;;5016276;28;45162;-57
2023/09/06 11:59:52;;;;;;;2.67;1.08;;;23.20;95.20;;;;;;5017914;28;45385;-58
2023/09/06 12:02:21;;;;;;;2.15;1.48;;;23.10;95.20;;;;;;5016140;28;45076;-57
2023/09/06 12:04:59;;;;;;;1.50;1.00;;;23.20;95.20;;;;;;5016702;28;45225;-57
2023/09/06 12:07:26;;;;;;;1.63;1.10;;;23.10;95.20;;;;;;5014569;28;45151;-57
2023/09/06 12:09:54;;;;;;;1.75;1.13;;;23.10;95.20;;;;;;5020021;28;45068;-57
2023/09/06 12:12:21;;;;;;;3.75;1.30;;;23.10;95.20;;;;;;5014799;28;45274;-57
2023/09/06 12:14:48;;;;;;;1.58;1.20;;;23.10;95.20;;;;;;5013482;28;45527;-58
2023/09/06 12:17:15;;;;;;;1.17;1.08;;;23.10;95.20;;;;;;5011161;28;45195;-58
2023/09/06 12:19:44;;;;;;;0.98;0.85;;;23.10;95.20;;;;;;5017939;28;45226;-57
2023/09/06 12:22:14;;;;;;;1.83;1.08;;;23.10;95.20;;;;;;5015354;28;45601;-57
2023/09/06 12:24:45;;;;;;;3.50;1.10;;;23.10;95.20;;;;;;5013466;28;45132;-58
2023/09/06 12:27:14;;;;;;;1.45;1.02;;;23.10;95.20;;;;;;5019549;28;44682;-57
2023/09/06 12:29:41;;;;;;;1.38;1.10;;;23.10;95.20;;;;;;5019976;28;45259;-58
2023/09/06 12:32:09;;;;;;;2.65;1.65;;;23.00;95.10;;;;;;5015443;28;45330;-57
2023/09/06 12:34:36;;;;;;;1.83;1.00;;;23.00;95.10;;;;;;5013491;28;46567;-57
2023/09/06 12:37:05;;;;;;;1.40;1.10;;;23.00;95.10;;;;;;5019158;28;45168;-57
2023/09/06 12:39:31;;;;;;;2.83;1.17;;;23.00;95.10;;;;;;5017227;28;44607;-57
2023/09/06 12:41:58;;;;;;;4.10;1.20;;;23.00;95.10;;;;;;5013158;28;45202;-57
2023/09/06 12:44:25;;;;;;;3.83;1.00;;;23.00;95.10;;;;;;5010744;28;46344;-58
2023/09/06 12:46:52;;;;;;;1.73;1.15;;;23.00;95.10;;;;;;5019824;28;45122;-57
2023/09/06 12:49:19;;;;;;;3.47;1.00;;;23.00;95.10;;;;;;5017769;28;45107;-57
2023/09/06 12:51:48;;;;;;;0.93;0.90;;;23.00;95.10;;;;;;5022296;28;45084;-57